Search for airport 
image banner adimage banner adimage banner ad
image banner ad

0PN6 - Memmi

Located in Three Springs, United States

ICAO - 0PN6, IATA -

Data provided by Airmate  

General information

Coordinates: N40°10'8" W77°59'33"
Elevation is 1138 feet MSL.
Magnetic variation is -09° East
View others Airports in Pennsylvania

Operational data

Special qualification required
Current time UTC:
Current local time:
Weather at : KAOO - Altoona-Blair County ( 31 km )
METAR: KAOO 091253Z AUTO 00000KT 10SM SCT070 OVC085 07/01 A3006 RMK AO2 SLP185 T00670011
TAF: KAOO 091131Z 0912/1012 24006KT P6SM BKN100 FM091400 15007KT 4SM -RA BR OVC020 FM091700 13010G20KT 2SM -RA BR OVC007 WS020/18040KT FM100200 34008G16KT 2SM -RA BR OVC006 FM100800 33008G15KT P6SM BKN009 OVC012
View NOTAMs / SUP AIP / TFR affecting this airport [VIEW]
Communications frequencies: [VIEW]

Runways:

RWY identifierQFULength (ft)Width (ft)SurfaceLDA (ft)
NE1730100GRASS
SW1730100GRASS

Airport contact information

Address: Three Springs United States

Satellite view of 0PN6